Pettit, Texas
Current Conditions -  °F | °C
As of 6:53 AM on Thursday 27 Nov 2014 (Local Time) from KLBB Reporting Station
Clear Clear  
Wind Chill: 24°   Ceiling: Unl
Heat Index: 30°   Visibility: 10mi
Dew Point: 22°   Wind: 6mph
Humidity: 72%   Direction: 140°SE
Pressure: 30.44"   Gusts: NA
Location:  33.6122°N, 102.39°W
Report Text: KLBB 271253Z 14005KT 10SM CLR M01/M06 A3044 RMK AO2 SLP314 T10111056
Loading
Personal Weather Stations






























Interactive Weather Map New forecast layout! Learn more

10-Day Weather Forecast

Advertisements
Track Severe Weather on mobile